Time;durP1;ratioP1;P1;durP2;ratioP2;P2;SDS_P1;SDS_P2;PMS_P1;PMS_P2;Temp;Humidity;BMP_temperature;BMP_pressure;BME280_temperature;BME280_humidity;BME280_pressure;Samples;Min_cycle;Max_cycle;Signal;HPM_P1;HPM_P2
2021/03/14 10:05:45;;;;;;;1.60;0.77;;;10.00;99.90;;;;;;4291710;23;20603;-69
2021/03/14 10:08:17;;;;;;;0.90;0.60;;;9.90;99.90;;;;;;4917057;29;20210;-69
2021/03/14 10:10:44;;;;;;;2.13;0.60;;;9.80;99.90;;;;;;4917442;29;20209;-72
2021/03/14 10:13:10;;;;;;;2.70;0.77;;;9.70;99.90;;;;;;4917070;29;20233;-66
2021/03/14 10:15:37;;;;;;;3.57;0.60;;;9.50;99.90;;;;;;4917670;29;20220;-71
2021/03/14 10:18:04;;;;;;;1.67;0.70;;;9.30;99.90;;;;;;4918054;29;20213;-69
2021/03/14 10:20:31;;;;;;;1.00;0.70;;;9.20;99.90;;;;;;4917436;29;20210;-69
2021/03/14 10:23:02;;;;;;;1.83;0.73;;;9.20;99.90;;;;;;4917296;29;20241;-70
2021/03/14 10:25:30;;;;;;;4.40;0.60;;;9.30;99.90;;;;;;4916954;29;20228;-70
2021/03/14 10:28:11;;;;;;;1.80;0.90;;;9.40;99.90;;;;;;4915885;29;20224;-71
2021/03/14 10:30:41;;;;;;;2.40;0.70;;;9.50;99.90;;;;;;4917268;29;20214;-72
2021/03/14 10:33:08;;;;;;;4.03;0.70;;;9.60;99.90;;;;;;4917038;29;20233;-72
2021/03/14 10:35:34;;;;;;;1.10;0.70;;;9.60;99.90;;;;;;4916907;29;20241;-73
2021/03/14 10:38:17;;;;;;;2.27;0.43;;;9.70;99.90;;;;;;4916937;29;20743;-72
2021/03/14 10:40:44;;;;;;;3.50;0.70;;;9.70;99.90;;;;;;4917357;29;20220;-71
2021/03/14 10:43:21;;;;;;;1.10;0.60;;;9.80;99.90;;;;;;4916544;29;20330;-68
2021/03/14 10:45:48;;;;;;;2.47;0.60;;;9.90;99.90;;;;;;4913854;29;20209;-72
2021/03/14 10:48:15;;;;;;;0.60;0.50;;;10.10;99.90;;;;;;4915753;29;20210;-68
2021/03/14 10:50:41;;;;;;;3.07;0.60;;;10.30;99.90;;;;;;4915248;29;20212;-69
2021/03/14 10:53:09;;;;;;;1.60;0.60;;;10.40;99.90;;;;;;4915131;29;20230;-67
2021/03/14 10:55:38;;;;;;;2.60;0.60;;;10.40;99.90;;;;;;4915408;29;20237;-68
2021/03/14 10:58:05;;;;;;;2.13;0.63;;;10.40;99.90;;;;;;4915256;29;20260;-68
2021/03/14 11:00:32;;;;;;;2.67;0.40;;;10.30;99.90;;;;;;4915556;29;20603;-68
2021/03/14 11:03:00;;;;;;;2.27;0.73;;;10.10;99.90;;;;;;4916622;29;20229;-67
2021/03/14 11:05:26;;;;;;;1.80;0.60;;;9.90;99.90;;;;;;4917070;29;20222;-68
2021/03/14 11:08:00;;;;;;;0.97;0.50;;;9.50;99.90;;;;;;4916839;29;20216;-67
2021/03/14 11:10:26;;;;;;;1.77;0.43;;;9.40;99.90;;;;;;4916696;29;20268;-67
2021/03/14 11:12:53;;;;;;;2.90;0.70;;;9.40;99.90;;;;;;4916545;29;20238;-67
2021/03/14 11:15:26;;;;;;;1.00;0.50;;;9.60;99.90;;;;;;4916357;29;20244;-67
2021/03/14 11:17:52;;;;;;;1.30;0.60;;;9.90;99.90;;;;;;4916257;29;20210;-68
2021/03/14 11:20:20;;;;;;;2.60;0.60;;;10.20;99.90;;;;;;4916547;29;20217;-67
2021/03/14 11:22:49;;;;;;;2.53;0.60;;;10.50;99.90;;;;;;4916527;29;20229;-68
2021/03/14 11:25:16;;;;;;;3.50;0.80;;;10.70;99.90;;;;;;4916594;29;20213;-67
2021/03/14 11:27:42;;;;;;;3.33;0.70;;;10.90;99.90;;;;;;4916644;29;20218;-67
2021/03/14 11:30:10;;;;;;;1.77;0.60;;;10.80;99.90;;;;;;4916330;29;20209;-67
2021/03/14 11:32:37;;;;;;;2.63;0.70;;;10.80;99.90;;;;;;4916630;29;20225;-67
2021/03/14 11:35:04;;;;;;;0.63;0.53;;;10.80;99.90;;;;;;4916396;29;20296;-65
2021/03/14 11:37:30;;;;;;;2.70;1.00;;;10.60;99.90;;;;;;4916299;29;20229;-66
2021/03/14 11:39:56;;;;;;;1.93;0.60;;;10.70;99.90;;;;;;4918679;29;20606;-66
2021/03/14 11:42:22;;;;;;;1.77;0.70;;;10.90;99.90;;;;;;4919966;29;20230;-66
2021/03/14 11:44:49;;;;;;;6.17;1.07;;;11.20;99.90;;;;;;4919580;29;20209;-66
2021/03/14 11:47:16;;;;;;;3.83;0.90;;;11.20;99.90;;;;;;4919679;29;20214;-66
2021/03/14 11:49:42;;;;;;;2.70;0.90;;;11.30;99.90;;;;;;4919637;29;20217;-66
2021/03/14 11:52:08;;;;;;;1.70;0.60;;;11.40;99.90;;;;;;4919577;29;20731;-66
2021/03/14 11:54:35;;;;;;;2.43;0.70;;;11.40;99.90;;;;;;4919796;29;20242;-66
2021/03/14 11:57:01;;;;;;;1.10;0.60;;;11.20;99.90;;;;;;4919557;29;20217;-66
2021/03/14 11:59:27;;;;;;;1.10;0.80;;;11.10;99.90;;;;;;4919969;29;20213;-66
2021/03/14 12:01:53;;;;;;;2.33;0.80;;;10.80;99.90;;;;;;4919381;29;20719;-67
2021/03/14 12:04:22;;;;;;;2.43;0.50;;;10.60;99.90;;;;;;4919707;29;20216;-66
2021/03/14 12:06:48;;;;;;;2.43;0.70;;;10.60;99.90;;;;;;4919042;29;20221;-66
2021/03/14 12:09:15;;;;;;;4.07;0.83;;;10.40;99.90;;;;;;4919432;29;20209;-67
2021/03/14 12:11:41;;;;;;;3.20;0.70;;;10.10;99.90;;;;;;4919408;29;20206;-67
2021/03/14 12:14:07;;;;;;;1.93;0.60;;;10.10;99.90;;;;;;4919267;29;20229;-67
2021/03/14 12:16:34;;;;;;;2.17;0.70;;;10.30;99.90;;;;;;4919543;29;20262;-67
2021/03/14 12:19:00;;;;;;;2.37;0.77;;;10.20;99.90;;;;;;4919703;29;20217;-67
2021/03/14 12:21:27;;;;;;;6.80;0.80;;;10.20;99.90;;;;;;4919146;29;20213;-66
2021/03/14 12:23:53;;;;;;;1.17;0.63;;;10.20;99.90;;;;;;4919289;29;20237;-66
2021/03/14 12:26:20;;;;;;;1.13;0.60;;;10.40;99.90;;;;;;4919043;29;20209;-67
2021/03/14 12:28:47;;;;;;;1.90;0.60;;;10.70;99.90;;;;;;4919371;29;20665;-66
2021/03/14 12:31:14;;;;;;;2.67;0.60;;;10.80;99.90;;;;;;4919516;29;20221;-67
2021/03/14 12:33:40;;;;;;;1.23;0.60;;;11.00;99.90;;;;;;4918944;29;20712;-67
2021/03/14 12:36:07;;;;;;;4.43;0.60;;;11.00;99.90;;;;;;4918983;29;20261;-67
2021/03/14 12:38:35;;;;;;;1.30;0.60;;;11.10;99.90;;;;;;4918878;29;20685;-67
2021/03/14 12:41:01;;;;;;;2.20;0.80;;;10.90;99.90;;;;;;4918496;29;20213;-66
2021/03/14 12:43:27;;;;;;;1.77;0.63;;;10.80;99.90;;;;;;4918874;29;20238;-66
2021/03/14 12:45:54;;;;;;;3.70;0.70;;;10.70;99.90;;;;;;4918836;29;20209;-67
2021/03/14 12:48:20;;;;;;;2.33;0.43;;;10.70;99.90;;;;;;4918690;29;20677;-66
2021/03/14 12:50:47;;;;;;;4.10;0.70;;;10.80;99.90;;;;;;4917598;29;20209;-66
2021/03/14 12:53:13;;;;;;;2.07;0.40;;;10.90;99.90;;;;;;4918241;29;20237;-66
2021/03/14 12:55:40;;;;;;;2.10;0.67;;;10.90;99.90;;;;;;4918655;29;20237;-66
2021/03/14 12:58:06;;;;;;;1.43;0.53;;;11.00;99.90;;;;;;4917212;29;20699;-68
2021/03/14 13:00:33;;;;;;;2.37;0.50;;;10.90;99.90;;;;;;4918874;29;20214;-67
2021/03/14 13:02:59;;;;;;;2.13;0.40;;;10.80;99.90;;;;;;4918517;29;20229;-67
2021/03/14 13:05:26;;;;;;;4.70;0.50;;;10.80;99.90;;;;;;4918648;29;20352;-67
2021/03/14 13:07:54;;;;;;;2.50;0.67;;;10.80;99.90;;;;;;4918569;29;20343;-67
2021/03/14 13:10:21;;;;;;;4.33;0.63;;;10.70;99.90;;;;;;4918483;29;20209;-68
2021/03/14 13:12:48;;;;;;;3.13;0.67;;;10.70;99.90;;;;;;4918655;29;20249;-67
2021/03/14 13:15:16;;;;;;;3.17;0.80;;;10.50;99.90;;;;;;4918292;29;20244;-67
2021/03/14 13:17:43;;;;;;;1.37;0.40;;;10.20;99.90;;;;;;4918207;29;20669;-67
2021/03/14 13:20:10;;;;;;;3.90;0.97;;;10.10;99.90;;;;;;4918447;29;20214;-66
2021/03/14 13:22:36;;;;;;;4.33;0.40;;;10.10;99.90;;;;;;4918184;29;20233;-66
2021/03/14 13:25:03;;;;;;;3.63;0.60;;;10.10;99.90;;;;;;4918597;29;20240;-66
2021/03/14 13:27:29;;;;;;;4.93;0.67;;;10.20;99.90;;;;;;4918531;29;20209;-67
2021/03/14 13:29:56;;;;;;;1.03;0.50;;;10.30;99.90;;;;;;4918239;29;20206;-66
2021/03/14 13:32:22;;;;;;;2.50;0.50;;;10.50;99.90;;;;;;4917975;29;20225;-67
2021/03/14 13:34:48;;;;;;;4.67;0.80;;;10.60;99.90;;;;;;4918064;29;20249;-66
2021/03/14 13:37:16;;;;;;;1.07;0.40;;;10.60;99.90;;;;;;4917875;29;20210;-67
2021/03/14 13:39:42;;;;;;;1.47;0.87;;;10.60;99.90;;;;;;4918249;29;20214;-66
2021/03/14 13:42:09;;;;;;;1.73;0.50;;;10.60;99.90;;;;;;4917992;29;20230;-66
2021/03/14 13:44:35;;;;;;;3.83;0.60;;;10.70;99.90;;;;;;4918029;29;20213;-67
2021/03/14 13:47:02;;;;;;;0.60;0.50;;;10.60;99.90;;;;;;4918023;29;20202;-66
2021/03/14 13:49:29;;;;;;;4.13;0.63;;;10.70;99.90;;;;;;4917505;29;20205;-66
2021/03/14 13:51:55;;;;;;;5.63;0.90;;;10.80;99.90;;;;;;4917418;29;20236;-67
2021/03/14 13:54:21;;;;;;;1.87;0.50;;;10.70;99.90;;;;;;4917562;29;20233;-67
2021/03/14 13:56:48;;;;;;;0.73;0.40;;;10.40;99.90;;;;;;4917491;29;20213;-66
2021/03/14 13:59:14;;;;;;;1.27;0.60;;;10.30;99.90;;;;;;4917503;29;20209;-66
2021/03/14 14:01:40;;;;;;;3.20;0.60;;;10.30;99.90;;;;;;4917377;29;20296;-66
2021/03/14 14:04:07;;;;;;;2.50;0.40;;;10.30;99.90;;;;;;4917454;29;20217;-66
2021/03/14 14:06:34;;;;;;;1.80;0.60;;;10.40;99.90;;;;;;4917344;29;20613;-67
2021/03/14 14:09:00;;;;;;;2.13;0.63;;;10.50;99.90;;;;;;4917505;29;20213;-67
2021/03/14 14:11:26;;;;;;;2.47;0.47;;;10.80;99.90;;;;;;4917446;29;20284;-67
2021/03/14 14:13:52;;;;;;;1.20;0.53;;;10.70;99.90;;;;;;4917100;29;20232;-66
2021/03/14 14:16:19;;;;;;;3.53;0.70;;;10.70;99.90;;;;;;4917223;29;20256;-67
2021/03/14 14:18:45;;;;;;;5.80;0.70;;;10.80;99.90;;;;;;4916887;29;20210;-66
2021/03/14 14:21:12;;;;;;;4.33;0.70;;;10.80;99.90;;;;;;4917030;29;20205;-67
2021/03/14 14:23:38;;;;;;;5.40;0.60;;;10.80;99.90;;;;;;4917182;29;20237;-66
2021/03/14 14:26:05;;;;;;;2.77;0.63;;;10.90;99.90;;;;;;4917067;29;20215;-66
2021/03/14 14:28:31;;;;;;;2.13;0.40;;;10.90;99.90;;;;;;4916685;29;20209;-67
2021/03/14 14:30:57;;;;;;;3.53;0.40;;;10.90;99.90;;;;;;4917046;29;20286;-66
2021/03/14 14:33:24;;;;;;;2.13;0.60;;;10.90;99.90;;;;;;4916658;29;20239;-67
2021/03/14 14:35:50;;;;;;;2.37;0.67;;;10.80;99.90;;;;;;4916896;29;20657;-67
2021/03/14 14:38:17;;;;;;;2.90;0.60;;;10.90;99.90;;;;;;4917032;29;20206;-67
2021/03/14 14:40:44;;;;;;;6.63;0.60;;;11.00;99.90;;;;;;4916783;29;20507;-66
2021/03/14 14:43:11;;;;;;;1.63;0.40;;;11.10;99.90;;;;;;4916569;29;20593;-66
2021/03/14 14:45:37;;;;;;;3.17;0.70;;;10.90;99.90;;;;;;4916875;29;20680;-67
2021/03/14 14:48:04;;;;;;;2.90;0.60;;;10.80;99.90;;;;;;4916868;29;20210;-68
2021/03/14 14:50:31;;;;;;;6.73;0.30;;;10.90;99.90;;;;;;4916684;29;20292;-67
2021/03/14 14:52:57;;;;;;;5.20;0.53;;;11.10;99.90;;;;;;4916617;29;20236;-67
2021/03/14 14:55:24;;;;;;;0.77;0.20;;;11.10;99.90;;;;;;4916707;29;20241;-68
2021/03/14 14:57:50;;;;;;;2.33;0.43;;;11.10;99.90;;;;;;4916701;29;20209;-66
2021/03/14 15:00:18;;;;;;;3.00;0.50;;;11.00;99.90;;;;;;4916658;29;20205;-67
2021/03/14 15:02:44;;;;;;;1.73;0.40;;;10.90;99.90;;;;;;4912992;29;20233;-67
2021/03/14 15:05:12;;;;;;;2.67;0.47;;;10.90;99.90;;;;;;4917194;29;20210;-67
2021/03/14 15:07:39;;;;;;;7.03;0.60;;;10.80;99.90;;;;;;4915885;29;20217;-67
2021/03/14 15:10:09;;;;;;;2.63;0.60;;;10.80;99.90;;;;;;4916661;29;20206;-67
2021/03/14 15:12:36;;;;;;;1.00;0.30;;;10.80;99.90;;;;;;4916781;29;20248;-67
2021/03/14 15:15:04;;;;;;;3.03;0.87;;;10.90;99.90;;;;;;4918933;29;20229;-68
2021/03/14 15:17:30;;;;;;;1.70;0.40;;;10.90;99.90;;;;;;4920309;29;20209;-67
2021/03/14 15:19:56;;;;;;;5.60;0.70;;;10.90;99.90;;;;;;4920307;29;20213;-67
2021/03/14 15:22:23;;;;;;;3.00;0.60;;;10.80;99.90;;;;;;4920198;29;20222;-67
2021/03/14 15:24:49;;;;;;;5.13;0.93;;;10.70;99.90;;;;;;4919766;29;20665;-68
2021/03/14 15:27:15;;;;;;;5.67;0.80;;;10.70;99.90;;;;;;4919615;29;20213;-69
2021/03/14 15:29:42;;;;;;;1.20;0.40;;;10.50;99.90;;;;;;4919552;29;20563;-69
2021/03/14 15:32:09;;;;;;;6.90;0.60;;;10.40;99.90;;;;;;4919235;29;20608;-69
2021/03/14 15:34:35;;;;;;;3.73;0.67;;;10.50;99.90;;;;;;4919415;29;20712;-69
2021/03/14 15:37:01;;;;;;;3.63;1.20;;;10.60;99.90;;;;;;4919404;29;20210;-68
2021/03/14 15:39:27;;;;;;;4.13;0.70;;;10.60;99.90;;;;;;4919255;29;20232;-68
2021/03/14 15:41:54;;;;;;;2.33;0.73;;;10.60;99.90;;;;;;4919784;29;20324;-68
2021/03/14 15:44:20;;;;;;;3.33;0.43;;;10.70;99.90;;;;;;4919281;29;20213;-68
2021/03/14 15:46:47;;;;;;;4.57;0.40;;;10.70;99.90;;;;;;4919416;29;20210;-67
2021/03/14 15:49:13;;;;;;;2.77;0.70;;;10.70;99.90;;;;;;4919359;29;20684;-67
2021/03/14 15:51:39;;;;;;;4.53;0.80;;;10.80;99.90;;;;;;4919231;29;20214;-67
2021/03/14 15:54:06;;;;;;;4.00;0.67;;;10.80;99.90;;;;;;4919508;29;20233;-67
2021/03/14 15:56:32;;;;;;;2.97;0.30;;;10.80;99.90;;;;;;4919279;29;20209;-68
2021/03/14 15:58:58;;;;;;;1.37;0.70;;;10.80;99.90;;;;;;4918979;29;20269;-68
2021/03/14 16:01:25;;;;;;;4.23;0.50;;;10.90;99.90;;;;;;4918520;29;20209;-68
2021/03/14 16:03:52;;;;;;;1.43;0.43;;;11.10;99.90;;;;;;4918916;29;20226;-68
2021/03/14 16:06:19;;;;;;;2.70;0.50;;;11.00;99.90;;;;;;4919052;29;20222;-67
2021/03/14 16:08:46;;;;;;;4.37;0.80;;;10.90;99.90;;;;;;4919027;29;20209;-68
2021/03/14 16:11:12;;;;;;;1.83;1.00;;;10.90;99.90;;;;;;4918585;29;20732;-68
2021/03/14 16:13:39;;;;;;;2.17;0.40;;;10.80;99.90;;;;;;4918980;29;20586;-68
2021/03/14 16:16:07;;;;;;;1.30;0.47;;;10.70;99.90;;;;;;4919116;29;20320;-68
2021/03/14 16:18:33;;;;;;;1.23;0.50;;;10.60;99.90;;;;;;4918633;29;20213;-68
2021/03/14 16:21:00;;;;;;;3.27;0.60;;;10.80;99.90;;;;;;4919043;29;20231;-67
2021/03/14 16:23:26;;;;;;;3.23;0.77;;;10.90;99.90;;;;;;4918555;29;20240;-67
2021/03/14 16:25:53;;;;;;;1.00;0.60;;;10.90;99.90;;;;;;4918356;29;20213;-68
2021/03/14 16:28:19;;;;;;;4.67;0.93;;;10.80;99.90;;;;;;4918307;29;20542;-68
2021/03/14 16:30:45;;;;;;;2.93;0.50;;;10.90;99.90;;;;;;4918272;29;20665;-68
2021/03/14 16:33:11;;;;;;;2.20;0.50;;;10.70;99.90;;;;;;4918699;29;20233;-67
2021/03/14 16:35:38;;;;;;;4.70;0.70;;;10.60;99.90;;;;;;4918423;29;20654;-68
2021/03/14 16:38:05;;;;;;;6.63;0.87;;;10.50;99.90;;;;;;4918570;29;20228;-68
2021/03/14 16:40:31;;;;;;;3.80;0.47;;;10.30;99.90;;;;;;4918176;29;20205;-69
2021/03/14 16:42:58;;;;;;;0.97;0.47;;;10.20;99.90;;;;;;4917989;29;20240;-67
2021/03/14 16:45:24;;;;;;;4.40;0.87;;;10.20;99.90;;;;;;4917830;29;20216;-67
2021/03/14 16:47:52;;;;;;;1.40;0.53;;;10.00;99.90;;;;;;4917616;29;20657;-67
2021/03/14 16:50:18;;;;;;;2.40;0.50;;;10.00;99.90;;;;;;4917894;29;20665;-67
2021/03/14 16:52:44;;;;;;;0.77;0.50;;;9.90;99.90;;;;;;4917397;29;20237;-67
2021/03/14 16:55:16;;;;;;;2.40;0.63;;;9.90;99.90;;;;;;4917592;29;20237;-66
2021/03/14 16:57:44;;;;;;;3.03;0.50;;;9.80;99.90;;;;;;4917818;29;20696;-68
2021/03/14 17:00:12;;;;;;;0.53;0.40;;;9.90;99.90;;;;;;4918310;29;20300;-67
2021/03/14 17:02:39;;;;;;;2.37;0.53;;;9.90;99.90;;;;;;4918248;29;20237;-67
2021/03/14 17:05:07;;;;;;;1.37;0.50;;;9.80;99.90;;;;;;4918245;29;20565;-67
2021/03/14 17:07:34;;;;;;;1.10;0.60;;;9.80;99.90;;;;;;4917593;29;20222;-67
2021/03/14 17:10:00;;;;;;;1.53;0.50;;;9.80;99.90;;;;;;4918215;29;20225;-67
2021/03/14 17:12:28;;;;;;;2.93;0.40;;;9.80;99.90;;;;;;4917301;29;20281;-67
2021/03/14 17:14:54;;;;;;;4.20;0.60;;;9.80;99.90;;;;;;4917379;29;20347;-68
2021/03/14 17:17:21;;;;;;;1.17;0.30;;;9.80;99.90;;;;;;4917717;29;20659;-67
2021/03/14 17:19:47;;;;;;;2.93;0.43;;;9.80;99.90;;;;;;4917507;29;20224;-68
2021/03/14 17:22:13;;;;;;;1.10;0.40;;;9.80;99.90;;;;;;4916767;29;20597;-68
2021/03/14 17:24:40;;;;;;;3.27;0.47;;;9.70;99.90;;;;;;4917596;29;20221;-67
2021/03/14 17:27:06;;;;;;;1.13;0.50;;;9.70;99.90;;;;;;4918208;29;20264;-68
2021/03/14 17:29:34;;;;;;;4.03;0.60;;;9.70;99.90;;;;;;4918121;29;20293;-68
2021/03/14 17:32:00;;;;;;;1.43;0.53;;;9.60;99.90;;;;;;4916982;29;20238;-68
2021/03/14 17:34:26;;;;;;;1.83;0.50;;;9.70;99.90;;;;;;4917167;29;20241;-68
2021/03/14 17:36:52;;;;;;;1.37;0.50;;;9.60;99.90;;;;;;4917077;29;20209;-68
2021/03/14 17:39:19;;;;;;;1.50;0.53;;;9.60;99.90;;;;;;4917645;29;20209;-68
2021/03/14 17:41:45;;;;;;;1.50;0.40;;;9.60;99.90;;;;;;4917253;29;20224;-69
2021/03/14 17:44:12;;;;;;;4.40;0.70;;;9.50;99.90;;;;;;4917023;29;20256;-68
2021/03/14 17:46:39;;;;;;;2.57;0.83;;;9.50;99.90;;;;;;4917267;29;20269;-68
2021/03/14 17:49:06;;;;;;;4.57;1.20;;;9.50;99.90;;;;;;4916189;29;20213;-68
2021/03/14 17:51:32;;;;;;;4.40;1.50;;;9.50;99.90;;;;;;4916933;29;20691;-69
2021/03/14 17:53:59;;;;;;;4.37;1.47;;;9.50;99.90;;;;;;4917185;29;20550;-68
2021/03/14 17:56:25;;;;;;;6.17;1.83;;;9.50;99.90;;;;;;4916955;29;20214;-67
2021/03/14 17:58:51;;;;;;;4.47;1.50;;;9.50;99.90;;;;;;4917103;29;20210;-68
2021/03/14 18:01:17;;;;;;;4.10;1.20;;;9.40;99.90;;;;;;4917096;29;20212;-68
2021/03/14 18:03:44;;;;;;;1.57;0.77;;;9.40;99.90;;;;;;4916267;29;20722;-68
2021/03/14 18:06:11;;;;;;;3.70;1.30;;;9.40;99.90;;;;;;4916033;29;20229;-68
2021/03/14 18:08:37;;;;;;;3.87;1.03;;;9.30;99.90;;;;;;4916311;29;20221;-68
2021/03/14 18:11:03;;;;;;;2.23;0.80;;;9.30;99.90;;;;;;4916607;29;20213;-68
2021/03/14 18:13:29;;;;;;;1.47;0.83;;;9.30;99.90;;;;;;4916800;29;20240;-67
2021/03/14 18:15:56;;;;;;;2.20;0.80;;;9.20;99.90;;;;;;4916236;29;20390;-66
2021/03/14 18:18:23;;;;;;;1.73;0.70;;;9.20;99.90;;;;;;4916571;29;20213;-67
2021/03/14 18:20:51;;;;;;;1.40;0.60;;;9.30;99.90;;;;;;4916323;29;20297;-67
2021/03/14 18:23:17;;;;;;;4.63;0.77;;;9.30;99.90;;;;;;4912846;29;20236;-66
2021/03/14 18:25:44;;;;;;;1.87;0.63;;;9.10;99.90;;;;;;4916857;29;20601;-66
2021/03/14 18:28:10;;;;;;;3.77;0.70;;;9.10;99.90;;;;;;4917071;29;20211;-67
2021/03/14 18:30:36;;;;;;;3.63;0.80;;;9.00;99.90;;;;;;4916927;29;20288;-67
2021/03/14 18:33:02;;;;;;;5.77;1.20;;;9.10;99.90;;;;;;4916789;29;20259;-66
2021/03/14 18:35:29;;;;;;;3.70;0.90;;;9.00;99.90;;;;;;4916871;29;20267;-68
2021/03/14 18:37:56;;;;;;;5.63;1.00;;;8.90;99.90;;;;;;4916771;29;20209;-70
2021/03/14 18:40:23;;;;;;;4.43;0.77;;;8.80;99.90;;;;;;4916925;29;20206;-67
2021/03/14 18:42:49;;;;;;;2.03;0.70;;;8.90;99.90;;;;;;4917007;29;20277;-67
2021/03/14 18:45:16;;;;;;;4.60;1.00;;;8.80;99.90;;;;;;4916861;29;20209;-66
2021/03/14 18:47:43;;;;;;;2.47;0.80;;;8.70;99.90;;;;;;4916676;29;20209;-67
2021/03/14 18:50:12;;;;;;;2.80;1.10;;;8.60;99.90;;;;;;4916255;29;20213;-66
2021/03/14 18:52:39;;;;;;;4.47;1.00;;;8.60;99.90;;;;;;4917017;29;20589;-67
2021/03/14 18:55:07;;;;;;;2.73;1.30;;;8.60;99.90;;;;;;4916971;29;20308;-69
2021/03/14 18:57:34;;;;;;;1.27;0.93;;;8.50;99.90;;;;;;4916666;29;20230;-66
2021/03/14 19:00:00;;;;;;;2.10;0.87;;;8.60;99.90;;;;;;4916814;29;20257;-67
2021/03/14 19:02:26;;;;;;;1.97;1.17;;;8.60;99.90;;;;;;4916510;29;20815;-67
2021/03/14 19:04:52;;;;;;;3.93;1.27;;;8.70;99.90;;;;;;4916999;29;20213;-66
2021/03/14 19:07:19;;;;;;;3.10;1.70;;;8.80;99.90;;;;;;4916446;29;20225;-67
2021/03/14 19:09:45;;;;;;;3.53;1.60;;;8.80;99.90;;;;;;4916818;29;20236;-67
2021/03/14 19:12:13;;;;;;;3.40;1.30;;;8.70;99.90;;;;;;4916476;29;20265;-67
2021/03/14 19:14:39;;;;;;;5.23;1.70;;;8.70;99.90;;;;;;4913542;29;20237;-68
2021/03/14 19:17:06;;;;;;;6.67;1.67;;;8.60;99.90;;;;;;4917353;29;20296;-68
2021/03/14 19:19:32;;;;;;;6.27;1.90;;;8.50;99.90;;;;;;4916121;29;20261;-68
2021/03/14 19:21:58;;;;;;;2.43;1.07;;;8.50;99.90;;;;;;4915771;29;20241;-68
2021/03/14 19:24:25;;;;;;;2.00;1.10;;;8.50;99.90;;;;;;4916296;29;20214;-67
2021/03/14 19:26:51;;;;;;;8.03;1.53;;;8.50;99.90;;;;;;4915903;29;20562;-67
2021/03/14 19:29:18;;;;;;;4.10;1.07;;;8.50;99.90;;;;;;4916184;29;20218;-67
2021/03/14 19:31:44;;;;;;;3.37;1.07;;;8.50;99.90;;;;;;4916020;29;20221;-67
2021/03/14 19:34:10;;;;;;;1.87;1.00;;;8.50;99.90;;;;;;4911938;29;20628;-68
2021/03/14 19:36:37;;;;;;;1.53;0.90;;;8.50;99.90;;;;;;4914218;29;20580;-69
2021/03/14 19:39:04;;;;;;;3.80;1.00;;;8.50;99.90;;;;;;4914510;29;20226;-67
2021/03/14 19:41:31;;;;;;;9.10;2.07;;;8.30;99.90;;;;;;4913989;29;20218;-69
2021/03/14 19:43:57;;;;;;;5.40;1.30;;;8.20;99.90;;;;;;4913964;29;20214;-69
2021/03/14 19:46:27;;;;;;;1.97;1.10;;;8.30;99.90;;;;;;4914010;29;20225;-67
2021/03/14 19:48:53;;;;;;;3.70;1.30;;;8.20;99.90;;;;;;4914425;29;20556;-69
2021/03/14 19:51:20;;;;;;;3.33;0.93;;;8.10;99.90;;;;;;4914263;29;20213;-69
2021/03/14 19:53:46;;;;;;;6.00;1.83;;;8.00;99.90;;;;;;4914249;29;20229;-68
2021/03/14 19:56:12;;;;;;;5.37;1.17;;;8.10;99.90;;;;;;4913583;29;20248;-68
2021/03/14 19:58:39;;;;;;;1.93;1.00;;;8.10;99.90;;;;;;4922612;29;20672;-69
2021/03/14 20:01:05;;;;;;;3.57;1.33;;;8.10;99.90;;;;;;4937680;29;20632;-67
2021/03/14 20:03:32;;;;;;;7.23;1.53;;;8.10;99.90;;;;;;4937949;29;20267;-68
2021/03/14 20:05:58;;;;;;;1.80;1.10;;;8.10;99.90;;;;;;4936839;29;20224;-67
2021/03/14 20:08:25;;;;;;;8.27;1.60;;;8.10;99.90;;;;;;4938587;29;20216;-67
2021/03/14 20:10:51;;;;;;;5.30;1.60;;;8.00;99.90;;;;;;4938684;29;20213;-67
2021/03/14 20:13:18;;;;;;;4.37;1.43;;;7.90;99.90;;;;;;4938608;29;20592;-68
2021/03/14 20:15:44;;;;;;;5.80;1.70;;;7.80;99.90;;;;;;4938467;29;20236;-68
2021/03/14 20:18:11;;;;;;;3.57;1.57;;;7.80;99.90;;;;;;4938588;29;20260;-67
2021/03/14 20:20:38;;;;;;;7.10;1.27;;;7.80;99.90;;;;;;4938461;29;20220;-67
2021/03/14 20:23:04;;;;;;;4.07;1.30;;;7.80;99.90;;;;;;4937963;29;20244;-67
2021/03/14 20:25:32;;;;;;;7.07;1.33;;;7.70;99.90;;;;;;4938213;29;20204;-68
2021/03/14 20:27:58;;;;;;;2.57;1.17;;;7.70;99.90;;;;;;4938531;29;20217;-67
2021/03/14 20:30:25;;;;;;;7.07;1.30;;;7.60;99.90;;;;;;4938230;29;20691;-67
2021/03/14 20:32:52;;;;;;;6.17;1.30;;;7.60;99.90;;;;;;4939060;29;20232;-66
2021/03/14 20:35:18;;;;;;;4.93;1.27;;;7.60;99.90;;;;;;4939824;29;20288;-68
2021/03/14 20:37:45;;;;;;;1.60;1.07;;;7.60;99.90;;;;;;4939510;29;20213;-67
2021/03/14 20:40:12;;;;;;;3.90;1.10;;;7.70;99.90;;;;;;4938107;29;20251;-67
2021/03/14 20:42:38;;;;;;;4.83;1.33;;;7.70;99.90;;;;;;4938283;29;20287;-67
2021/03/14 20:45:06;;;;;;;7.90;1.30;;;7.80;99.90;;;;;;4938224;29;20212;-68
2021/03/14 20:47:32;;;;;;;6.77;1.63;;;7.80;99.90;;;;;;4937664;29;20212;-67
2021/03/14 20:49:59;;;;;;;7.50;1.37;;;7.90;99.90;;;;;;4937785;29;20212;-67
2021/03/14 20:52:25;;;;;;;4.60;1.17;;;7.90;99.90;;;;;;4937746;29;20233;-67
2021/03/14 20:54:52;;;;;;;6.97;1.40;;;8.00;99.90;;;;;;4937890;29;20715;-68
2021/03/14 20:57:19;;;;;;;2.63;1.53;;;7.90;99.90;;;;;;4937879;29;20220;-67
2021/03/14 20:59:45;;;;;;;5.53;1.27;;;8.00;99.90;;;;;;4937865;29;20221;-67
2021/03/14 21:02:11;;;;;;;6.80;1.57;;;7.90;99.90;;;;;;4937545;29;20225;-67
2021/03/14 21:04:39;;;;;;;3.27;1.10;;;7.90;99.90;;;;;;4937746;29;20220;-67
2021/03/14 21:07:07;;;;;;;7.27;1.50;;;7.80;99.90;;;;;;4937233;29;20698;-67
2021/03/14 21:09:33;;;;;;;2.80;1.30;;;7.90;99.90;;;;;;4937279;29;20217;-67
2021/03/14 21:12:01;;;;;;;3.93;1.23;;;8.00;99.90;;;;;;4936501;29;20288;-66
2021/03/14 21:14:27;;;;;;;6.07;1.60;;;8.00;99.90;;;;;;4937484;29;20205;-67
2021/03/14 21:16:54;;;;;;;7.07;1.60;;;8.00;99.90;;;;;;4937449;29;20695;-67
2021/03/14 21:19:20;;;;;;;4.83;1.23;;;8.00;99.90;;;;;;4937319;29;20208;-67
2021/03/14 21:21:47;;;;;;;3.93;1.00;;;8.00;99.90;;;;;;4936911;29;20216;-67
2021/03/14 21:24:14;;;;;;;6.93;1.10;;;8.10;99.90;;;;;;4937458;29;20223;-67
2021/03/14 21:26:40;;;;;;;4.37;1.03;;;8.10;99.90;;;;;;4937556;29;20220;-67
2021/03/14 21:29:07;;;;;;;7.43;1.07;;;8.10;99.90;;;;;;4937455;29;20220;-67
2021/03/14 21:31:34;;;;;;;6.20;1.30;;;8.00;99.90;;;;;;4937147;29;20263;-67
2021/03/14 21:34:02;;;;;;;6.23;1.40;;;8.00;99.90;;;;;;4936902;29;20236;-67
2021/03/14 21:36:28;;;;;;;3.30;1.40;;;8.00;99.90;;;;;;4936835;29;20240;-67
2021/03/14 21:38:54;;;;;;;2.80;1.17;;;8.00;99.90;;;;;;4937343;29;20208;-67
2021/03/14 21:41:20;;;;;;;8.50;1.50;;;8.00;99.90;;;;;;4937081;29;20213;-67
2021/03/14 21:43:46;;;;;;;4.10;1.57;;;8.00;99.90;;;;;;4937040;29;20600;-67
2021/03/14 21:46:14;;;;;;;6.90;2.37;;;8.20;99.90;;;;;;4937055;29;20272;-67
2021/03/14 21:48:40;;;;;;;2.57;1.00;;;8.30;99.90;;;;;;4936901;29;20212;-67
2021/03/14 21:51:06;;;;;;;2.17;1.00;;;8.30;99.90;;;;;;4936490;29;20260;-67
2021/03/14 21:53:32;;;;;;;2.50;1.40;;;8.30;99.90;;;;;;4936956;29;20229;-67
2021/03/14 21:55:59;;;;;;;2.83;1.10;;;8.20;99.90;;;;;;4936596;29;20248;-67
2021/03/14 21:58:25;;;;;;;6.33;1.63;;;8.20;99.90;;;;;;4936650;29;20569;-67
2021/03/14 22:00:51;;;;;;;4.67;1.50;;;8.20;99.90;;;;;;4936734;29;20272;-67
2021/03/14 22:03:18;;;;;;;3.93;1.03;;;8.10;99.90;;;;;;4936542;29;20233;-67
2021/03/14 22:05:44;;;;;;;3.70;1.10;;;8.20;99.90;;;;;;4936823;29;20209;-67
2021/03/14 22:08:11;;;;;;;5.13;1.27;;;8.20;99.90;;;;;;4936134;29;20261;-67
2021/03/14 22:10:37;;;;;;;4.73;1.33;;;8.20;99.90;;;;;;4936466;29;20212;-67
2021/03/14 22:13:03;;;;;;;7.97;1.63;;;8.20;99.90;;;;;;4936470;29;20244;-67
